Rochester, New Hampshire
Current Conditions -  °F | °C
As of 3:51 AM on Monday 20 Oct 2014 (Local Time) from KDAW Reporting Station
Clear Clear  
Wind Chill: 36°   Ceiling: Unl
Heat Index: 36°   Visibility: 10mi
Dew Point: 25°   Wind: 0mph
Humidity: 64%   Direction: NA
Pressure: 29.95"   Gusts: NA
Location:  43.31°N, 70.98°W
Report Text: KDAW 200751Z AUTO 00000KT 10SM CLR 02/M04 A2995 RMK AO2 SLP142 T00221039
Loading
Personal Weather Stations






























Interactive Weather Map New forecast layout! Learn more

10-Day Weather Forecast

Advertisements
Track Severe Weather on mobile